createdAt,value
2023-06-11T00:01:30.925Z,39.28
2023-06-11T00:03:58.977Z,39.40
2023-06-11T00:06:26.395Z,39.50
2023-06-11T00:08:55.491Z,39.51
2023-06-11T00:11:23.561Z,39.62
2023-06-11T00:13:51.561Z,39.74
2023-06-11T00:16:18.905Z,39.86
2023-06-11T00:18:46.584Z,39.82
2023-06-11T00:21:14.926Z,40.04
2023-06-11T00:23:42.358Z,40.06
2023-06-11T00:26:09.993Z,40.02
2023-06-11T00:28:37.431Z,40.19
2023-06-11T00:31:05.287Z,40.22
2023-06-11T00:33:32.650Z,40.36
2023-06-11T00:36:00.015Z,40.34
2023-06-11T00:38:27.252Z,40.64
2023-06-11T00:40:54.494Z,40.43
2023-06-11T00:43:24.335Z,40.67
2023-06-11T00:45:52.417Z,40.70
2023-06-11T00:48:20.875Z,40.72
2023-06-11T00:50:50.314Z,40.69
2023-06-11T00:53:18.997Z,40.83
2023-06-11T00:55:46.937Z,40.86
2023-06-11T00:58:15.601Z,40.98
2023-06-11T01:00:51.537Z,40.62
2023-06-11T01:03:28.447Z,40.84
2023-06-11T01:06:08.343Z,40.86
2023-06-11T01:08:40.437Z,40.94
2023-06-11T01:11:22.425Z,40.79
2023-06-11T01:13:50.260Z,40.84
2023-06-11T01:16:47.608Z,40.81
2023-06-11T01:19:38.363Z,40.75
2023-06-11T01:22:14.915Z,40.88
2023-06-11T01:25:04.393Z,40.64
2023-06-11T01:27:53.176Z,40.63
2023-06-11T01:30:21.859Z,40.64
2023-06-11T01:32:57.109Z,40.28
2023-06-11T01:35:24.986Z,40.39
2023-06-11T01:37:59.481Z,40.43
2023-06-11T01:40:27.599Z,40.30
2023-06-11T01:42:55.896Z,40.50
2023-06-11T01:45:24.314Z,40.58
2023-06-11T01:47:52.300Z,40.54
2023-06-11T01:50:20.559Z,40.65
2023-06-11T01:52:48.302Z,40.71
2023-06-11T01:55:15.946Z,40.55
2023-06-11T01:57:43.295Z,40.72
2023-06-11T02:00:11.424Z,40.81
2023-06-11T02:02:40.721Z,40.81
2023-06-11T02:05:09.158Z,40.77
2023-06-11T02:07:37.481Z,40.84
2023-06-11T02:10:05.272Z,40.89
2023-06-11T02:12:32.596Z,40.99
2023-06-11T02:14:59.987Z,40.88
2023-06-11T02:17:27.337Z,40.79
2023-06-11T02:19:54.577Z,41.03
2023-06-11T02:22:21.902Z,41.05
2023-06-11T02:24:49.129Z,41.51
2023-06-11T02:27:16.583Z,41.90
2023-06-11T02:29:43.791Z,42.11
2023-06-11T02:32:12.667Z,42.37
2023-06-11T02:34:40.156Z,42.67
2023-06-11T02:37:07.691Z,42.79
2023-06-11T02:39:35.009Z,42.98
2023-06-11T02:42:02.429Z,42.90
2023-06-11T02:44:29.666Z,43.39
2023-06-11T02:46:56.974Z,43.63
2023-06-11T02:49:24.205Z,43.83
2023-06-11T02:51:51.505Z,43.89
2023-06-11T02:54:18.783Z,44.08
2023-06-11T02:56:46.106Z,44.06
2023-06-11T02:59:13.367Z,44.25
2023-06-11T03:01:40.822Z,44.23
2023-06-11T03:04:08.308Z,44.44
2023-06-11T03:06:35.903Z,44.45
2023-06-11T03:09:03.257Z,44.51
2023-06-11T03:11:30.547Z,44.45
2023-06-11T03:13:57.833Z,44.61
2023-06-11T03:16:25.247Z,44.72
2023-06-11T03:18:52.530Z,44.49
2023-06-11T03:21:19.803Z,44.64
2023-06-11T03:23:47.041Z,44.63
2023-06-11T03:26:14.301Z,44.81
2023-06-11T03:28:41.512Z,44.70
2023-06-11T03:31:08.812Z,44.46
2023-06-11T03:33:36.111Z,44.64
2023-06-11T03:36:03.329Z,44.57
2023-06-11T03:38:30.585Z,44.35
2023-06-11T03:40:57.818Z,44.79
2023-06-11T03:43:25.145Z,44.62
2023-06-11T03:45:52.482Z,44.79
2023-06-11T03:48:19.747Z,44.59
2023-06-11T03:50:47.098Z,44.20
2023-06-11T03:53:14.365Z,44.33
2023-06-11T03:55:41.613Z,44.61
2023-06-11T03:58:08.861Z,44.61
2023-06-11T04:00:36.375Z,44.48
2023-06-11T04:03:03.771Z,44.40
2023-06-11T04:05:38.836Z,44.55
2023-06-11T04:08:06.109Z,44.33
2023-06-11T04:10:33.645Z,44.33
2023-06-11T04:13:01.053Z,44.26
2023-06-11T04:15:28.336Z,44.30
2023-06-11T04:17:55.631Z,44.19
2023-06-11T04:20:22.998Z,44.16
2023-06-11T04:22:50.338Z,44.28
2023-06-11T04:25:20.236Z,44.08
2023-06-11T04:27:48.329Z,44.38
2023-06-11T04:30:15.867Z,44.11
2023-06-11T04:32:43.257Z,44.30
2023-06-11T04:35:14.750Z,44.35
2023-06-11T04:37:43.332Z,44.07
2023-06-11T04:40:11.751Z,44.13
2023-06-11T04:42:42.541Z,44.24
2023-06-11T04:45:11.601Z,44.05
2023-06-11T04:47:39.461Z,44.09
2023-06-11T04:50:07.651Z,44.21
2023-06-11T04:52:44.130Z,44.29
2023-06-11T04:55:13.448Z,44.21
2023-06-11T04:57:41.115Z,44.09
2023-06-11T05:00:09.664Z,44.07
2023-06-11T05:02:45.661Z,44.30
2023-06-11T05:05:14.023Z,44.31
2023-06-11T05:07:42.950Z,44.36
2023-06-11T05:10:10.468Z,44.61
2023-06-11T05:12:37.735Z,44.98
2023-06-11T05:15:05.458Z,44.55
2023-06-11T05:17:34.014Z,44.80
2023-06-11T05:20:01.367Z,44.67
2023-06-11T05:22:28.634Z,45.03
2023-06-11T05:24:55.931Z,44.87
2023-06-11T05:27:24.854Z,44.73
2023-06-11T05:29:52.678Z,44.72
2023-06-11T05:32:20.102Z,44.62
2023-06-11T05:34:50.918Z,44.47
2023-06-11T05:37:18.510Z,44.72
2023-06-11T05:39:47.066Z,44.50
2023-06-11T05:42:14.381Z,44.78
2023-06-11T05:44:42.109Z,44.65
2023-06-11T05:47:09.400Z,44.72
2023-06-11T05:49:37.063Z,44.43
2023-06-11T05:52:04.452Z,44.18
2023-06-11T05:54:31.690Z,44.22
2023-06-11T05:56:59.328Z,44.11
2023-06-11T05:59:26.589Z,44.09
2023-06-11T06:02:00.264Z,44.06
2023-06-11T06:04:27.727Z,44.18
2023-06-11T06:06:57.814Z,44.05
2023-06-11T06:09:25.044Z,44.02
2023-06-11T06:11:52.307Z,44.33
2023-06-11T06:14:19.567Z,44.01
2023-06-11T06:16:47.196Z,44.11
2023-06-11T06:19:14.581Z,44.27
2023-06-11T06:21:42.055Z,44.07
2023-06-11T06:24:10.982Z,44.26
2023-06-11T06:26:42.175Z,44.13
2023-06-11T06:29:09.864Z,44.06
2023-06-11T06:31:38.244Z,43.92
2023-06-11T06:34:05.540Z,43.96
2023-06-11T06:36:32.930Z,44.00
2023-06-11T06:39:01.304Z,43.82
2023-06-11T06:41:28.632Z,43.85
2023-06-11T06:43:57.668Z,43.65
2023-06-11T06:46:26.547Z,43.90
2023-06-11T06:48:53.925Z,43.55
2023-06-11T06:51:21.715Z,43.75
2023-06-11T06:53:49.217Z,43.57
2023-06-11T06:56:19.734Z,43.36
2023-06-11T06:58:46.976Z,43.49
2023-06-11T07:01:14.320Z,43.69
2023-06-11T07:03:42.337Z,43.52
2023-06-11T07:06:09.784Z,43.54
2023-06-11T07:08:38.839Z,43.45
2023-06-11T07:11:06.132Z,43.48
2023-06-11T07:13:33.412Z,43.55
2023-06-11T07:16:01.193Z,43.32
2023-06-11T07:18:29.322Z,43.57
2023-06-11T07:20:56.597Z,43.43
2023-06-11T07:23:23.861Z,43.56
2023-06-11T07:25:51.569Z,43.74
2023-06-11T07:28:18.931Z,43.46
2023-06-11T07:30:46.315Z,43.50
2023-06-11T07:33:13.687Z,43.45
2023-06-11T07:35:41.449Z,43.41
2023-06-11T07:38:08.767Z,43.18
2023-06-11T07:40:36.694Z,43.31
2023-06-11T07:43:03.941Z,43.24
2023-06-11T07:45:31.395Z,43.40
2023-06-11T07:47:58.663Z,43.13
2023-06-11T07:50:26.266Z,43.22
2023-06-11T07:52:53.486Z,43.18
2023-06-11T07:55:20.892Z,43.21
2023-06-11T07:57:48.290Z,43.00
2023-06-11T08:00:18.059Z,43.12
2023-06-11T08:02:45.830Z,43.18
2023-06-11T08:05:18.675Z,43.04
2023-06-11T08:07:47.178Z,43.07
2023-06-11T08:10:14.652Z,42.74
2023-06-11T08:12:42.152Z,42.98
2023-06-11T08:15:09.880Z,42.96
2023-06-11T08:17:37.292Z,42.87
2023-06-11T08:20:07.857Z,42.63
2023-06-11T08:22:35.207Z,42.72
2023-06-11T08:25:02.481Z,42.63
2023-06-11T08:27:29.712Z,42.41
2023-06-11T08:29:56.994Z,42.32
2023-06-11T08:32:25.875Z,42.04
2023-06-11T08:34:53.295Z,42.16
2023-06-11T08:37:20.562Z,41.82
2023-06-11T08:39:47.779Z,41.50
2023-06-11T08:42:15.131Z,41.27
2023-06-11T08:44:42.683Z,40.84
2023-06-11T08:47:11.940Z,40.72
2023-06-11T08:49:45.220Z,40.64
2023-06-11T08:52:14.330Z,40.35
2023-06-11T08:54:41.717Z,40.75
2023-06-11T08:57:09.783Z,40.53
2023-06-11T08:59:37.020Z,40.24
2023-06-11T09:02:04.698Z,40.59
2023-06-11T09:04:32.138Z,40.76
2023-06-11T09:07:01.888Z,40.61
2023-06-11T09:09:29.354Z,40.80
2023-06-11T09:11:56.993Z,41.02
2023-06-11T09:14:24.268Z,40.98
2023-06-11T09:16:51.799Z,40.88
2023-06-11T09:19:20.942Z,40.85
2023-06-11T09:21:52.787Z,41.48
2023-06-11T09:24:21.078Z,40.98
2023-06-11T09:26:59.270Z,41.24
2023-06-11T09:29:28.829Z,40.92
2023-06-11T09:32:19.544Z,41.06
2023-06-11T09:34:57.311Z,41.15
2023-06-11T09:37:24.785Z,40.48
2023-06-11T09:39:52.274Z,40.65
2023-06-11T09:42:27.985Z,40.82
2023-06-11T09:45:01.978Z,40.21
2023-06-11T09:47:31.907Z,40.24
2023-06-11T09:50:00.079Z,40.17
2023-06-11T09:52:30.792Z,40.36
2023-06-11T09:54:58.467Z,40.39
2023-06-11T09:57:26.001Z,40.23
2023-06-11T09:59:53.705Z,40.12
2023-06-11T10:02:22.278Z,40.14
2023-06-11T10:04:49.969Z,40.11
2023-06-11T10:07:17.603Z,39.90
2023-06-11T10:09:47.155Z,39.58
2023-06-11T10:12:17.394Z,39.52
2023-06-11T10:14:52.436Z,39.64
2023-06-11T10:17:21.781Z,39.91
2023-06-11T10:19:50.043Z,41.37
2023-06-11T10:22:34.804Z,42.11
2023-06-11T10:25:05.724Z,41.84
2023-06-11T10:27:41.757Z,42.08
2023-06-11T10:30:10.385Z,42.47
2023-06-11T10:32:47.872Z,42.56
2023-06-11T10:35:23.709Z,42.71
2023-06-11T10:37:51.113Z,43.66
2023-06-11T10:40:20.840Z,43.36
2023-06-11T10:42:53.364Z,44.52
2023-06-11T10:45:21.126Z,45.10
2023-06-11T10:47:51.015Z,45.37
2023-06-11T10:50:26.408Z,45.37
2023-06-11T10:52:57.232Z,44.89
2023-06-11T10:55:27.396Z,44.74
2023-06-11T10:57:55.147Z,43.49
2023-06-11T11:00:23.231Z,43.37
2023-06-11T11:02:51.846Z,43.51
2023-06-11T11:05:19.125Z,42.85
2023-06-11T11:07:47.077Z,42.29
2023-06-11T11:10:20.031Z,41.51
2023-06-11T11:12:48.261Z,41.28
2023-06-11T11:15:16.287Z,40.59
2023-06-11T11:17:44.640Z,40.76
2023-06-11T11:20:18.429Z,40.70
2023-06-11T11:22:53.610Z,40.03
2023-06-11T11:25:22.919Z,39.76
2023-06-11T11:27:50.538Z,39.52
2023-06-11T11:30:21.002Z,38.99
2023-06-11T11:32:48.429Z,38.95
2023-06-11T11:35:16.141Z,38.70
2023-06-11T11:37:45.828Z,38.82
2023-06-11T11:40:13.889Z,38.86
2023-06-11T11:42:48.232Z,38.55
2023-06-11T11:45:16.065Z,38.68
2023-06-11T11:47:53.318Z,38.60
2023-06-11T11:50:28.418Z,40.43
2023-06-11T11:53:06.845Z,40.21
2023-06-11T11:55:52.414Z,40.02
2023-06-11T11:58:28.291Z,40.14
2023-06-11T12:00:57.730Z,39.99
2023-06-11T12:03:26.192Z,40.07
2023-06-11T12:06:07.656Z,39.96
2023-06-11T12:08:36.647Z,40.40
2023-06-11T12:11:07.595Z,40.30
2023-06-11T12:13:35.561Z,40.50
2023-06-11T12:16:04.872Z,40.23
2023-06-11T12:18:33.559Z,40.28
2023-06-11T12:21:01.080Z,40.75
2023-06-11T12:23:28.405Z,40.60
2023-06-11T12:25:55.639Z,40.99
2023-06-11T12:28:22.947Z,40.68
2023-06-11T12:30:50.285Z,41.00
2023-06-11T12:33:17.801Z,40.57
2023-06-11T12:35:45.629Z,40.84
2023-06-11T12:38:14.115Z,41.29
2023-06-11T12:40:41.726Z,41.07
2023-06-11T12:43:09.109Z,41.40
2023-06-11T12:45:38.530Z,41.68
2023-06-11T12:48:06.564Z,41.74
2023-06-11T12:50:34.049Z,41.26
2023-06-11T12:53:02.569Z,41.11
2023-06-11T12:55:29.953Z,41.16
2023-06-11T12:57:57.198Z,40.73
2023-06-11T13:00:26.441Z,40.15
2023-06-11T13:02:53.745Z,39.98
2023-06-11T13:05:22.659Z,40.06
2023-06-11T13:07:50.504Z,39.98
2023-06-11T13:10:18.153Z,40.46
2023-06-11T13:12:45.468Z,40.90
2023-06-11T13:15:12.700Z,41.30
2023-06-11T13:17:40.266Z,41.29
2023-06-11T13:20:11.372Z,41.11
2023-06-11T13:22:39.483Z,40.64
2023-06-11T13:25:07.196Z,40.50
2023-06-11T13:27:34.420Z,40.37
2023-06-11T13:30:02.551Z,39.46
2023-06-11T13:32:29.878Z,39.50
2023-06-11T13:34:58.334Z,39.23
2023-06-11T13:37:25.637Z,39.02
2023-06-11T13:39:53.019Z,38.78
2023-06-11T13:42:20.482Z,38.96
2023-06-11T13:44:47.756Z,38.62
2023-06-11T13:47:15.063Z,38.88
2023-06-11T13:49:42.741Z,38.57
2023-06-11T13:52:09.967Z,38.46
2023-06-11T13:54:38.385Z,38.44
2023-06-11T13:57:05.799Z,38.68
2023-06-11T13:59:33.734Z,38.94
2023-06-11T14:05:12.563Z,38.74
2023-06-11T14:07:40.876Z,38.86
2023-06-11T14:10:09.055Z,39.19
2023-06-11T14:12:36.543Z,38.89
2023-06-11T14:15:04.096Z,39.07
2023-06-11T14:17:31.786Z,39.00
2023-06-11T14:19:59.129Z,39.10
2023-06-11T14:22:26.506Z,39.10
2023-06-11T14:24:53.829Z,39.26
2023-06-11T14:27:21.045Z,39.27
2023-06-11T14:29:48.328Z,39.57
2023-06-11T14:32:15.799Z,39.73
2023-06-11T14:34:43.050Z,39.58
2023-06-11T14:37:10.582Z,39.56
2023-06-11T14:39:37.802Z,39.57
2023-06-11T14:42:06.159Z,39.14
2023-06-11T14:44:33.499Z,39.19
2023-06-11T14:47:01.132Z,39.17
2023-06-11T14:49:28.354Z,39.42
2023-06-11T14:51:56.784Z,39.52
2023-06-11T14:54:25.929Z,39.63
2023-06-11T14:56:55.559Z,39.19
2023-06-11T14:59:22.854Z,39.49
2023-06-11T15:01:50.097Z,39.63
2023-06-11T15:04:17.441Z,39.90
2023-06-11T15:06:44.989Z,39.64
2023-06-11T15:09:12.273Z,39.72
2023-06-11T15:11:39.501Z,39.67
2023-06-11T15:14:06.853Z,39.83
2023-06-11T15:16:34.197Z,40.10
2023-06-11T15:19:01.519Z,40.12
2023-06-11T15:21:28.778Z,39.79
2023-06-11T15:23:56.710Z,40.24
2023-06-11T15:26:24.095Z,40.33
2023-06-11T15:28:51.345Z,40.36
2023-06-11T15:31:18.716Z,40.03
2023-06-11T15:33:46.077Z,40.39
2023-06-11T15:36:13.583Z,40.16
2023-06-11T15:38:40.921Z,39.67
2023-06-11T15:41:08.141Z,39.70
2023-06-11T15:43:35.795Z,39.61
2023-06-11T15:46:03.463Z,39.37
2023-06-11T15:48:30.803Z,39.29
2023-06-11T15:50:58.126Z,38.92
2023-06-11T15:53:25.550Z,39.10
2023-06-11T15:55:52.774Z,38.87
2023-06-11T15:58:20.154Z,38.51
2023-06-11T16:00:47.512Z,38.34
2023-06-11T16:03:16.395Z,38.53
2023-06-11T16:05:44.045Z,38.78
2023-06-11T16:08:11.790Z,38.44
2023-06-11T16:10:39.227Z,38.49
2023-06-11T16:13:06.548Z,38.34
2023-06-11T16:15:34.561Z,38.56
2023-06-11T16:18:01.983Z,38.80
2023-06-11T16:20:31.122Z,38.73
2023-06-11T16:22:58.430Z,38.60
2023-06-11T16:25:25.795Z,38.86
2023-06-11T16:27:53.293Z,38.72
2023-06-11T16:30:20.744Z,38.68
2023-06-11T16:32:48.032Z,39.34
2023-06-11T16:35:17.830Z,39.99
2023-06-11T16:37:45.728Z,39.79
2023-06-11T16:40:13.056Z,39.00
2023-06-11T16:42:40.337Z,39.33
2023-06-11T16:45:07.964Z,39.10
2023-06-11T16:47:35.308Z,38.54
2023-06-11T16:50:02.591Z,38.09
2023-06-11T16:52:30.907Z,38.21
2023-06-11T16:55:01.393Z,38.15
2023-06-11T16:57:29.175Z,37.59
2023-06-11T16:59:58.211Z,38.03
2023-06-11T17:02:25.503Z,38.06
2023-06-11T17:04:52.855Z,37.92
2023-06-11T17:07:20.269Z,37.88
2023-06-11T17:09:47.566Z,37.69
2023-06-11T17:12:15.306Z,37.56
2023-06-11T17:14:42.528Z,37.43
2023-06-11T17:17:09.802Z,37.51
2023-06-11T17:19:37.342Z,36.77
2023-06-11T17:22:04.690Z,37.65
2023-06-11T17:24:32.117Z,37.75
2023-06-11T17:26:59.532Z,37.81
2023-06-11T17:29:26.794Z,37.61
2023-06-11T17:31:54.115Z,36.82
2023-06-11T17:34:21.354Z,37.42
2023-06-11T17:36:49.304Z,36.85
2023-06-11T17:39:16.588Z,37.19
2023-06-11T17:41:43.869Z,37.10
2023-06-11T17:44:11.102Z,37.64
2023-06-11T17:46:38.335Z,37.43
2023-06-11T17:49:05.866Z,37.04
2023-06-11T17:51:33.110Z,37.76
2023-06-11T17:54:00.876Z,37.16
2023-06-11T17:56:28.504Z,37.40
2023-06-11T17:58:55.713Z,37.74
2023-06-11T18:01:23.722Z,38.13
2023-06-11T18:03:51.264Z,38.01
2023-06-11T18:06:18.962Z,37.93
2023-06-11T18:08:46.363Z,38.23
2023-06-11T18:11:13.642Z,38.00
2023-06-11T18:13:40.912Z,38.08
2023-06-11T18:16:08.432Z,38.53
2023-06-11T18:18:35.832Z,38.97
2023-06-11T18:21:03.131Z,38.55
2023-06-11T18:23:30.390Z,38.46
2023-06-11T18:25:58.102Z,38.46
2023-06-11T18:28:26.494Z,38.21
2023-06-11T18:30:54.419Z,37.95
2023-06-11T18:33:21.757Z,38.17
2023-06-11T18:35:49.137Z,37.90
2023-06-11T18:38:16.359Z,37.95
2023-06-11T18:40:43.664Z,38.50
2023-06-11T18:43:11.018Z,38.80
2023-06-11T18:45:38.294Z,38.85
2023-06-11T18:48:05.833Z,38.48
2023-06-11T18:50:33.192Z,38.53
2023-06-11T18:53:00.570Z,38.14
2023-06-11T18:55:30.513Z,38.41
2023-06-11T18:58:06.265Z,38.15
2023-06-11T19:00:35.170Z,38.03
2023-06-11T19:03:03.077Z,38.19
2023-06-11T19:05:30.776Z,37.15
2023-06-11T19:07:58.038Z,37.19
2023-06-11T19:10:25.410Z,37.11
2023-06-11T19:12:54.897Z,36.67
2023-06-11T19:15:23.452Z,36.99
2023-06-11T19:17:50.953Z,36.76
2023-06-11T19:20:18.575Z,36.43
2023-06-11T19:22:46.041Z,36.31
2023-06-11T19:25:13.394Z,36.06
2023-06-11T19:27:40.633Z,36.20
2023-06-11T19:30:08.313Z,37.12
2023-06-11T19:32:36.024Z,37.63
2023-06-11T19:35:03.321Z,37.68
2023-06-11T19:37:30.808Z,37.22
2023-06-11T19:39:58.074Z,37.10
2023-06-11T19:42:25.289Z,37.10
2023-06-11T19:44:52.834Z,36.97
2023-06-11T19:47:20.461Z,36.69
2023-06-11T19:49:48.531Z,36.62
2023-06-11T19:52:15.876Z,36.30
2023-06-11T19:54:51.070Z,36.24
2023-06-11T19:57:20.034Z,36.10
2023-06-11T19:59:48.048Z,36.45
2023-06-11T20:02:15.748Z,36.38
2023-06-11T20:04:43.161Z,36.16
2023-06-11T20:07:10.414Z,36.27
2023-06-11T20:09:37.694Z,36.54
2023-06-11T20:12:08.205Z,36.38
2023-06-11T20:14:36.630Z,36.06
2023-06-11T20:17:04.875Z,37.52
2023-06-11T20:19:35.088Z,38.93
2023-06-11T20:22:03.514Z,38.82
2023-06-11T20:24:30.775Z,38.47
2023-06-11T20:26:58.042Z,38.48
2023-06-11T20:29:25.422Z,38.48
2023-06-11T20:31:53.271Z,38.10
2023-06-11T20:34:20.799Z,38.26
2023-06-11T20:36:48.773Z,38.09
2023-06-11T20:39:16.118Z,38.19
2023-06-11T20:41:43.443Z,38.33
2023-06-11T20:44:10.829Z,38.25
2023-06-11T20:46:38.287Z,37.75
2023-06-11T20:49:08.893Z,37.64
2023-06-11T20:51:38.597Z,38.12
2023-06-11T20:54:06.584Z,38.06
2023-06-11T20:56:34.126Z,38.49
2023-06-11T20:59:04.482Z,38.40
2023-06-11T21:01:31.922Z,38.46
2023-06-11T21:03:59.301Z,38.61
2023-06-11T21:06:26.645Z,38.52
2023-06-11T21:08:53.939Z,38.62
2023-06-11T21:11:21.246Z,38.41
2023-06-11T21:14:03.850Z,38.33
2023-06-11T21:16:37.102Z,38.49
2023-06-11T21:19:04.544Z,38.38
2023-06-11T21:21:31.963Z,38.18
2023-06-11T21:24:00.027Z,38.34
2023-06-11T21:26:27.554Z,38.02
2023-06-11T21:28:54.855Z,37.90
2023-06-11T21:31:22.158Z,37.95
2023-06-11T21:33:49.465Z,37.99
2023-06-11T21:36:16.776Z,38.04
2023-06-11T21:38:44.237Z,38.01
2023-06-11T21:41:11.699Z,38.01
2023-06-11T21:43:38.952Z,38.10
2023-06-11T21:46:06.197Z,38.31
2023-06-11T21:48:33.714Z,38.06
2023-06-11T21:51:00.938Z,38.45
2023-06-11T21:53:28.186Z,38.59
2023-06-11T21:55:55.449Z,38.37
2023-06-11T21:58:22.681Z,38.02
2023-06-11T22:00:49.991Z,37.95
2023-06-11T22:03:19.861Z,37.74
2023-06-11T22:05:47.251Z,37.85
2023-06-11T22:08:14.780Z,37.94
2023-06-11T22:10:42.070Z,38.21
2023-06-11T22:13:09.279Z,38.04
2023-06-11T22:15:36.533Z,38.33
2023-06-11T22:18:03.819Z,38.34
2023-06-11T22:20:35.766Z,38.29
2023-06-11T22:23:03.709Z,37.91
2023-06-11T22:25:30.954Z,38.14
2023-06-11T22:27:58.178Z,38.12
2023-06-11T22:30:25.535Z,38.26
2023-06-11T22:32:52.800Z,38.03
2023-06-11T22:35:20.114Z,38.23
2023-06-11T22:37:47.336Z,38.07
2023-06-11T22:40:15.157Z,38.20
2023-06-11T22:42:42.620Z,38.14
2023-06-11T22:45:10.124Z,38.06
2023-06-11T22:47:37.810Z,38.10
2023-06-11T22:50:05.752Z,38.11
2023-06-11T22:52:39.543Z,37.90
2023-06-11T22:55:10.914Z,38.29
2023-06-11T22:57:38.181Z,38.18
2023-06-11T23:00:07.453Z,38.13
2023-06-11T23:02:34.710Z,38.12
2023-06-11T23:05:04.643Z,38.18
2023-06-11T23:07:32.303Z,38.05
2023-06-11T23:09:59.520Z,37.97
2023-06-11T23:12:26.728Z,38.03
2023-06-11T23:14:53.971Z,37.99
2023-06-11T23:17:21.266Z,38.11
2023-06-11T23:19:48.550Z,37.91
2023-06-11T23:22:18.556Z,37.98
2023-06-11T23:24:46.220Z,38.04
2023-06-11T23:27:16.310Z,37.98
2023-06-11T23:29:44.656Z,37.91
2023-06-11T23:32:12.124Z,37.78
2023-06-11T23:34:39.632Z,37.90
2023-06-11T23:37:07.461Z,37.66
2023-06-11T23:39:35.345Z,37.88
2023-06-11T23:42:02.928Z,37.78
2023-06-11T23:44:30.491Z,37.92
2023-06-11T23:46:57.806Z,37.79
2023-06-11T23:49:25.052Z,37.59
2023-06-11T23:51:52.373Z,37.61
2023-06-11T23:54:19.601Z,37.67
2023-06-11T23:56:46.875Z,37.74
2023-06-11T23:59:14.198Z,37.71
